createdAt,value
2019-03-25T00:00:25.527Z,4.50
2019-03-25T00:03:14.346Z,4.63
2019-03-25T00:06:02.491Z,4.40
2019-03-25T00:09:04.559Z,3.67
2019-03-25T00:11:41.343Z,4.97
2019-03-25T00:14:29.929Z,4.47
2019-03-25T00:17:18.610Z,4.83
2019-03-25T00:20:08.018Z,4.20
2019-03-25T00:22:56.736Z,4.80
2019-03-25T00:25:45.668Z,4.33
2019-03-25T00:28:34.452Z,4.60
2019-03-25T00:31:23.961Z,4.50
2019-03-25T00:34:12.876Z,4.70
2019-03-25T00:37:01.838Z,5.30
2019-03-25T00:39:51.139Z,5.53
2019-03-25T00:42:39.933Z,5.97
2019-03-25T00:45:28.095Z,5.37
2019-03-25T00:48:16.778Z,6.47
2019-03-25T00:51:05.370Z,6.60
2019-03-25T00:53:53.507Z,5.80
2019-03-25T00:56:41.646Z,5.60
2019-03-25T00:59:30.106Z,6.63
2019-03-25T01:02:18.830Z,6.33
2019-03-25T01:05:07.171Z,7.20
2019-03-25T01:07:56.172Z,7.47
2019-03-25T01:10:45.040Z,6.70
2019-03-25T01:13:33.612Z,6.67
2019-03-25T01:16:21.648Z,7.50
2019-03-25T01:19:09.994Z,8.03
2019-03-25T01:21:58.767Z,7.40
2019-03-25T01:24:47.806Z,7.77
2019-03-25T01:27:36.508Z,8.33
2019-03-25T01:30:25.578Z,8.67
2019-03-25T01:33:14.336Z,6.30
2019-03-25T01:36:02.339Z,6.53
2019-03-25T01:38:51.242Z,6.00
2019-03-25T01:41:39.923Z,6.70
2019-03-25T01:44:27.935Z,6.77
2019-03-25T01:47:16.918Z,6.47
2019-03-25T01:50:06.460Z,5.87
2019-03-25T01:52:55.349Z,6.03
2019-03-25T01:55:44.586Z,5.37
2019-03-25T01:58:33.441Z,6.17
2019-03-25T02:01:21.471Z,6.97
2019-03-25T02:04:10.041Z,6.97
2019-03-25T02:06:58.895Z,5.47
2019-03-25T02:09:47.634Z,6.30
2019-03-25T02:12:36.415Z,7.07
2019-03-25T02:15:24.600Z,5.90
2019-03-25T02:18:12.671Z,7.00
2019-03-25T02:21:01.071Z,6.57
2019-03-25T02:23:49.743Z,6.50
2019-03-25T02:26:38.193Z,6.80
2019-03-25T02:29:26.570Z,7.30
2019-03-25T02:32:15.795Z,6.50
2019-03-25T02:35:04.611Z,8.10
2019-03-25T02:37:53.631Z,6.67
2019-03-25T02:40:42.546Z,7.93
2019-03-25T02:43:31.495Z,7.27
2019-03-25T02:46:20.030Z,7.30
2019-03-25T02:49:08.879Z,10.13
2019-03-25T02:51:56.991Z,8.20
2019-03-25T02:54:45.685Z,8.17
2019-03-25T02:57:34.591Z,7.97
2019-03-25T03:00:34.321Z,8.33
2019-03-25T03:03:23.315Z,8.37
2019-03-25T03:06:11.376Z,8.67
2019-03-25T03:09:00.179Z,8.30
2019-03-25T03:11:48.324Z,9.23
2019-03-25T03:14:36.337Z,7.80
2019-03-25T03:17:24.848Z,7.97
2019-03-25T03:20:13.950Z,8.10
2019-03-25T03:23:03.029Z,8.43
2019-03-25T03:25:57.734Z,8.20
2019-03-25T03:28:41.524Z,9.33
2019-03-25T03:31:29.752Z,8.43
2019-03-25T03:34:18.456Z,8.03
2019-03-25T03:37:07.139Z,9.43
2019-03-25T03:39:55.761Z,10.20
2019-03-25T03:42:44.252Z,9.13
2019-03-25T03:45:32.689Z,9.53
2019-03-25T03:48:21.711Z,10.47
2019-03-25T03:51:10.849Z,8.70
2019-03-25T03:53:59.132Z,6.90
2019-03-25T03:56:49.986Z,5.80
2019-03-25T03:59:38.277Z,7.20
2019-03-25T04:02:26.921Z,6.30
2019-03-25T04:05:15.869Z,6.30
2019-03-25T04:08:04.835Z,6.63
2019-03-25T04:10:53.337Z,6.70
2019-03-25T04:13:42.328Z,6.50
2019-03-25T04:16:31.028Z,7.33
2019-03-25T04:19:19.676Z,6.60
2019-03-25T04:22:08.225Z,4.00
2019-03-25T04:24:56.696Z,3.90
2019-03-25T04:27:45.719Z,3.43
2019-03-25T04:30:33.721Z,3.30
2019-03-25T04:33:22.705Z,3.70
2019-03-25T04:36:11.682Z,3.60
2019-03-25T04:39:00.571Z,3.27
2019-03-25T04:41:49.268Z,3.20
2019-03-25T04:44:37.760Z,2.83
2019-03-25T04:47:26.356Z,3.83
2019-03-25T04:50:14.588Z,3.30
2019-03-25T04:53:03.748Z,3.80
2019-03-25T04:55:52.251Z,4.17
2019-03-25T04:58:41.079Z,3.83
2019-03-25T05:01:29.845Z,3.97
2019-03-25T05:04:18.291Z,4.97
2019-03-25T05:07:06.403Z,5.00
2019-03-25T05:09:54.858Z,4.70
2019-03-25T05:12:43.143Z,5.00
2019-03-25T05:15:31.924Z,4.30
2019-03-25T05:18:20.666Z,5.20
2019-03-25T05:21:08.981Z,4.60
2019-03-25T05:23:58.000Z,4.13
2019-03-25T05:26:51.227Z,3.13
2019-03-25T05:29:37.091Z,3.40
2019-03-25T05:32:25.817Z,3.43
2019-03-25T05:35:14.130Z,3.23
2019-03-25T05:38:03.116Z,2.87
2019-03-25T05:40:51.791Z,2.53
2019-03-25T05:43:40.837Z,2.77
2019-03-25T05:46:29.298Z,2.80
2019-03-25T05:49:18.054Z,2.47
2019-03-25T05:52:06.093Z,2.47
2019-03-25T05:54:55.028Z,1.93
2019-03-25T05:57:43.535Z,2.53
2019-03-25T06:00:34.579Z,1.63
2019-03-25T06:03:22.899Z,2.00
2019-03-25T06:06:11.134Z,1.90
2019-03-25T06:08:59.822Z,2.60
2019-03-25T06:11:48.413Z,2.67
2019-03-25T06:14:37.098Z,1.80
2019-03-25T06:17:25.252Z,2.77
2019-03-25T06:20:14.756Z,2.80
2019-03-25T06:23:03.017Z,2.50
2019-03-25T06:25:52.005Z,2.73
2019-03-25T06:28:40.864Z,2.40
2019-03-25T06:31:29.372Z,4.10
2019-03-25T06:34:18.413Z,3.30
2019-03-25T06:37:06.934Z,2.70
2019-03-25T06:39:55.787Z,3.00
2019-03-25T06:42:44.706Z,2.33
2019-03-25T06:45:33.954Z,2.80
2019-03-25T06:48:22.467Z,3.57
2019-03-25T06:51:10.455Z,2.70
2019-03-25T06:54:00.472Z,2.60
2019-03-25T06:56:49.686Z,3.00
2019-03-25T06:59:40.163Z,3.33
2019-03-25T07:02:28.992Z,4.07
2019-03-25T07:05:19.634Z,4.00
2019-03-25T07:08:08.157Z,3.60
2019-03-25T07:10:58.136Z,3.67
2019-03-25T07:13:47.051Z,4.03
2019-03-25T07:16:37.583Z,3.90
2019-03-25T07:19:27.994Z,4.00
2019-03-25T07:22:17.693Z,5.57
2019-03-25T07:25:06.189Z,5.53
2019-03-25T07:27:55.287Z,4.77
2019-03-25T07:30:44.109Z,5.43
2019-03-25T07:33:32.941Z,5.10
2019-03-25T07:36:21.240Z,4.60
2019-03-25T07:39:10.438Z,4.60
2019-03-25T07:41:59.146Z,5.80
2019-03-25T07:44:47.976Z,5.03
2019-03-25T07:47:36.905Z,4.47
2019-03-25T07:50:25.348Z,5.10
2019-03-25T07:53:13.459Z,5.20
2019-03-25T07:56:02.564Z,4.10
2019-03-25T07:58:51.756Z,5.90
2019-03-25T08:01:41.071Z,6.10
2019-03-25T08:04:29.401Z,4.33
2019-03-25T08:07:17.553Z,5.07
2019-03-25T08:10:08.283Z,5.20
2019-03-25T08:12:57.028Z,3.90
2019-03-25T08:15:45.178Z,4.03
2019-03-25T08:18:34.496Z,5.43
2019-03-25T08:21:24.985Z,3.97
2019-03-25T08:24:14.283Z,4.00
2019-03-25T08:27:02.632Z,3.83
2019-03-25T08:29:51.195Z,4.70
2019-03-25T08:32:40.098Z,3.17
2019-03-25T08:35:29.060Z,2.60
2019-03-25T08:38:18.160Z,2.80
2019-03-25T08:41:07.167Z,2.20
2019-03-25T08:43:56.095Z,1.93
2019-03-25T08:46:44.784Z,1.13
2019-03-25T08:49:33.237Z,1.87
2019-03-25T08:52:22.122Z,1.30
2019-03-25T08:55:11.408Z,1.40
2019-03-25T08:58:11.248Z,1.30
2019-03-25T09:00:49.704Z,1.70
2019-03-25T09:03:38.332Z,1.50
2019-03-25T09:06:27.142Z,2.37
2019-03-25T09:09:15.408Z,1.50
2019-03-25T09:12:04.093Z,2.07
2019-03-25T09:14:53.482Z,4.23
2019-03-25T09:17:42.696Z,2.73
2019-03-25T09:20:31.923Z,3.00
2019-03-25T09:23:20.628Z,2.73
2019-03-25T09:26:09.652Z,3.20
2019-03-25T09:28:58.453Z,1.60
2019-03-25T09:31:47.116Z,2.10
2019-03-25T09:34:36.368Z,2.70
2019-03-25T09:37:25.374Z,3.13
2019-03-25T09:40:14.296Z,3.13
2019-03-25T09:43:02.850Z,2.37
2019-03-25T09:45:51.903Z,2.13
2019-03-25T09:48:40.578Z,1.87
2019-03-25T09:51:29.067Z,2.53
2019-03-25T09:54:18.078Z,1.90
2019-03-25T09:57:07.219Z,2.43
2019-03-25T09:59:56.451Z,4.30
2019-03-25T10:02:45.319Z,1.90
2019-03-25T10:05:34.885Z,3.17
2019-03-25T10:08:23.847Z,2.00
2019-03-25T10:11:13.167Z,2.30
2019-03-25T10:14:02.072Z,2.30
2019-03-25T10:16:51.388Z,2.40
2019-03-25T10:19:39.805Z,3.10
2019-03-25T10:22:28.561Z,3.67
2019-03-25T10:25:17.422Z,1.40
2019-03-25T10:28:05.959Z,2.00
2019-03-25T10:30:54.135Z,1.70
2019-03-25T10:33:43.275Z,2.33
2019-03-25T10:36:32.000Z,1.90
2019-03-25T10:39:20.762Z,1.90
2019-03-25T10:42:09.460Z,1.97
2019-03-25T10:44:57.824Z,1.57
2019-03-25T10:47:47.222Z,1.70
2019-03-25T10:50:35.982Z,1.07
2019-03-25T10:53:24.775Z,2.17
2019-03-25T10:56:13.597Z,1.70
2019-03-25T10:59:02.596Z,1.47
2019-03-25T11:01:51.155Z,2.23
2019-03-25T11:04:40.015Z,2.20
2019-03-25T11:07:29.536Z,1.20
2019-03-25T11:10:18.955Z,1.70
2019-03-25T11:13:07.601Z,1.33
2019-03-25T11:15:56.845Z,1.97
2019-03-25T11:18:45.828Z,1.17
2019-03-25T11:21:34.180Z,1.50
2019-03-25T11:24:22.907Z,1.80
2019-03-25T11:27:11.871Z,1.67
2019-03-25T11:30:00.740Z,1.80
2019-03-25T11:32:49.797Z,2.20
2019-03-25T11:35:38.772Z,1.80
2019-03-25T11:38:27.416Z,1.63
2019-03-25T11:41:15.907Z,1.80
2019-03-25T11:44:04.355Z,2.17
2019-03-25T11:46:52.501Z,2.80
2019-03-25T11:49:41.519Z,2.80
2019-03-25T11:52:30.183Z,1.97
2019-03-25T11:55:18.701Z,1.67
2019-03-25T11:58:08.190Z,1.67
2019-03-25T12:00:57.079Z,1.50
2019-03-25T12:03:45.627Z,1.17
2019-03-25T12:06:34.057Z,2.33
2019-03-25T12:09:22.813Z,1.63
2019-03-25T12:12:10.905Z,1.30
2019-03-25T12:15:01.508Z,1.90
2019-03-25T12:17:50.239Z,1.43
2019-03-25T12:20:39.037Z,1.70
2019-03-25T12:23:27.965Z,1.77
2019-03-25T12:26:16.579Z,2.43
2019-03-25T12:29:05.044Z,2.40
2019-03-25T12:31:54.006Z,2.13
2019-03-25T12:34:42.451Z,1.90
2019-03-25T12:37:31.406Z,1.90
2019-03-25T12:40:19.959Z,2.40
2019-03-25T12:43:09.558Z,2.73
2019-03-25T12:45:58.945Z,2.40
2019-03-25T12:48:47.706Z,2.40
2019-03-25T12:51:36.749Z,2.10
2019-03-25T12:54:25.734Z,1.63
2019-03-25T12:57:14.111Z,2.40
2019-03-25T13:00:03.332Z,1.80
2019-03-25T13:02:51.461Z,2.80
2019-03-25T13:05:39.956Z,2.43
2019-03-25T13:08:33.378Z,0.70
2019-03-25T13:11:19.203Z,0.90
2019-03-25T13:14:08.432Z,1.27
2019-03-25T13:16:56.497Z,0.90
2019-03-25T13:19:45.418Z,0.90
2019-03-25T13:22:34.347Z,1.00
2019-03-25T13:25:23.661Z,1.37
2019-03-25T13:28:12.679Z,1.50
2019-03-25T13:31:01.175Z,1.23
2019-03-25T13:33:50.508Z,1.93
2019-03-25T13:36:38.759Z,1.40
2019-03-25T13:39:27.582Z,1.90
2019-03-25T13:42:15.706Z,1.30
2019-03-25T13:45:05.059Z,1.70
2019-03-25T13:47:54.131Z,1.40
2019-03-25T13:50:43.179Z,1.50
2019-03-25T13:53:32.615Z,2.60
2019-03-25T13:56:21.331Z,1.67
2019-03-25T13:59:10.451Z,1.47
2019-03-25T14:01:59.705Z,2.00
2019-03-25T14:04:48.160Z,2.40
2019-03-25T14:07:36.656Z,2.03
2019-03-25T14:10:25.526Z,2.00
2019-03-25T14:13:14.314Z,1.77
2019-03-25T14:16:03.231Z,1.70
2019-03-25T14:18:52.404Z,2.03
2019-03-25T14:21:41.363Z,1.97
2019-03-25T14:24:30.012Z,1.60
2019-03-25T14:27:19.054Z,2.27
2019-03-25T14:30:14.361Z,2.00
2019-03-25T14:32:58.763Z,2.10
2019-03-25T14:35:47.451Z,1.70
2019-03-25T14:38:36.080Z,2.20
2019-03-25T14:41:24.772Z,3.20
2019-03-25T14:44:13.608Z,1.53
2019-03-25T14:47:01.946Z,1.27
2019-03-25T14:49:50.755Z,1.40
2019-03-25T14:52:39.547Z,3.47
2019-03-25T14:55:28.218Z,1.60
2019-03-25T14:58:16.831Z,1.63
2019-03-25T15:01:05.600Z,1.13
2019-03-25T15:03:54.331Z,1.10
2019-03-25T15:06:43.474Z,1.80
2019-03-25T15:09:32.027Z,1.20
2019-03-25T15:12:20.744Z,1.10
2019-03-25T15:15:09.700Z,1.63
2019-03-25T15:17:58.484Z,1.63
2019-03-25T15:20:47.719Z,1.40
2019-03-25T15:23:36.556Z,1.57
2019-03-25T15:26:25.386Z,1.60
2019-03-25T15:29:14.363Z,1.43
2019-03-25T15:32:03.667Z,1.47
2019-03-25T15:34:52.412Z,2.50
2019-03-25T15:37:41.255Z,1.87
2019-03-25T15:40:30.463Z,1.70
2019-03-25T15:43:19.704Z,1.60
2019-03-25T15:46:08.661Z,2.53
2019-03-25T15:48:57.346Z,1.67
2019-03-25T15:51:46.016Z,1.60
2019-03-25T15:54:35.115Z,1.50
2019-03-25T15:57:23.271Z,1.60
2019-03-25T16:00:15.515Z,1.20
2019-03-25T16:03:04.713Z,1.93
2019-03-25T16:05:53.726Z,1.03
2019-03-25T16:08:42.946Z,1.20
2019-03-25T16:11:31.903Z,1.30
2019-03-25T16:14:21.011Z,2.17
2019-03-25T16:17:09.630Z,1.87
2019-03-25T16:19:58.682Z,1.83
2019-03-25T16:22:47.219Z,1.67
2019-03-25T16:25:36.158Z,1.70
2019-03-25T16:28:24.765Z,1.30
2019-03-25T16:31:13.484Z,0.90
2019-03-25T16:34:01.831Z,2.20
2019-03-25T16:36:50.115Z,1.60
2019-03-25T16:39:38.926Z,2.27
2019-03-25T16:42:27.827Z,1.87
2019-03-25T16:45:16.610Z,1.57
2019-03-25T16:48:05.415Z,1.50
2019-03-25T16:50:54.127Z,2.13
2019-03-25T16:53:43.179Z,1.80
2019-03-25T16:56:32.553Z,2.00
2019-03-25T16:59:21.083Z,2.50
2019-03-25T17:02:09.463Z,1.30
2019-03-25T17:04:57.511Z,2.20
2019-03-25T17:07:46.304Z,2.20
2019-03-25T17:10:35.171Z,1.80
2019-03-25T17:13:23.235Z,2.50
2019-03-25T17:16:11.906Z,2.07
2019-03-25T17:19:02.130Z,2.20
2019-03-25T17:21:58.035Z,2.43
2019-03-25T17:24:41.089Z,2.10
2019-03-25T17:27:29.327Z,1.90
2019-03-25T17:30:18.723Z,2.53
2019-03-25T17:33:07.708Z,2.43
2019-03-25T17:35:56.463Z,2.07
2019-03-25T17:38:45.840Z,2.17
2019-03-25T17:41:34.847Z,2.63
2019-03-25T17:44:23.108Z,2.03
2019-03-25T17:47:11.416Z,1.97
2019-03-25T17:50:00.322Z,1.90
2019-03-25T17:52:49.380Z,1.93
2019-03-25T17:55:38.286Z,2.20
2019-03-25T17:58:27.262Z,2.50
2019-03-25T18:01:32.517Z,3.30
2019-03-25T18:04:19.127Z,1.97
2019-03-25T18:07:07.763Z,2.47
2019-03-25T18:09:57.214Z,2.63
2019-03-25T18:12:46.208Z,2.47
2019-03-25T18:15:35.576Z,2.23
2019-03-25T18:18:24.667Z,2.30
2019-03-25T18:21:13.584Z,2.00
2019-03-25T18:24:02.440Z,3.33
2019-03-25T18:26:50.487Z,4.10
2019-03-25T18:29:39.237Z,3.57
2019-03-25T18:32:28.185Z,3.07
2019-03-25T18:35:23.840Z,3.63
2019-03-25T18:38:12.859Z,3.90
2019-03-25T18:41:01.284Z,4.20
2019-03-25T18:43:49.808Z,3.80
2019-03-25T18:46:38.422Z,2.80
2019-03-25T18:49:27.190Z,3.33
2019-03-25T18:52:16.373Z,3.90
2019-03-25T18:55:04.692Z,3.87
2019-03-25T18:57:52.876Z,3.47
2019-03-25T19:00:41.674Z,3.00
2019-03-25T19:03:30.112Z,3.47
2019-03-25T19:06:18.434Z,3.40
2019-03-25T19:09:09.015Z,3.93
2019-03-25T19:11:57.418Z,3.70
2019-03-25T19:14:46.759Z,4.17
2019-03-25T19:17:34.776Z,3.57
2019-03-25T19:20:23.757Z,3.90
2019-03-25T19:23:12.131Z,3.40
2019-03-25T19:26:01.243Z,3.57
2019-03-25T19:28:50.147Z,3.83
2019-03-25T19:31:38.703Z,2.70
2019-03-25T19:34:27.665Z,2.60
2019-03-25T19:37:16.176Z,3.50
2019-03-25T19:40:05.559Z,5.23
2019-03-25T19:42:54.611Z,4.37
2019-03-25T19:45:42.844Z,2.60
2019-03-25T19:48:32.122Z,2.70
2019-03-25T19:51:20.121Z,3.67
2019-03-25T19:54:08.868Z,3.83
2019-03-25T19:56:57.615Z,3.60
2019-03-25T19:59:46.753Z,4.73
2019-03-25T20:02:35.458Z,4.20
2019-03-25T20:05:24.243Z,4.50
2019-03-25T20:08:13.393Z,3.63
2019-03-25T20:11:01.940Z,3.50
2019-03-25T20:13:49.996Z,3.73
2019-03-25T20:16:39.466Z,4.03
2019-03-25T20:19:27.514Z,3.40
2019-03-25T20:22:16.672Z,3.23
2019-03-25T20:25:05.920Z,3.80
2019-03-25T20:27:54.667Z,4.10
2019-03-25T20:30:43.558Z,2.77
2019-03-25T20:33:31.995Z,3.53
2019-03-25T20:36:21.172Z,3.10
2019-03-25T20:39:10.323Z,3.50
2019-03-25T20:41:58.847Z,3.53
2019-03-25T20:44:47.444Z,3.30
2019-03-25T20:47:35.755Z,3.20
2019-03-25T20:50:24.391Z,2.87
2019-03-25T20:53:13.219Z,3.07
2019-03-25T20:56:01.668Z,2.93
2019-03-25T20:58:49.963Z,3.57
2019-03-25T21:01:38.811Z,3.40
2019-03-25T21:04:27.663Z,3.90
2019-03-25T21:07:16.656Z,3.57
2019-03-25T21:10:06.618Z,3.40
2019-03-25T21:12:55.032Z,3.60
2019-03-25T21:15:43.855Z,3.67
2019-03-25T21:18:32.853Z,3.70
2019-03-25T21:21:21.970Z,3.37
2019-03-25T21:24:10.759Z,3.40
2019-03-25T21:26:59.827Z,3.17
2019-03-25T21:29:49.589Z,3.67
2019-03-25T21:32:38.136Z,4.43
2019-03-25T21:35:27.462Z,5.57
2019-03-25T21:38:16.437Z,3.77
2019-03-25T21:41:05.085Z,4.00
2019-03-25T21:43:53.355Z,3.30
2019-03-25T21:46:42.105Z,4.13
2019-03-25T21:49:30.594Z,3.30
2019-03-25T21:52:19.300Z,3.57
2019-03-25T21:55:08.022Z,2.90
2019-03-25T21:57:56.946Z,2.97
2019-03-25T22:00:45.991Z,3.90
2019-03-25T22:03:34.967Z,3.80
2019-03-25T22:06:24.052Z,3.03
2019-03-25T22:09:12.836Z,3.53
2019-03-25T22:12:01.306Z,3.90
2019-03-25T22:14:49.768Z,4.10
2019-03-25T22:17:38.515Z,3.30
2019-03-25T22:20:26.725Z,3.97
2019-03-25T22:23:14.782Z,3.77
2019-03-25T22:26:03.854Z,3.10
2019-03-25T22:28:52.807Z,4.10
2019-03-25T22:31:41.638Z,4.33
2019-03-25T22:34:29.747Z,4.07
2019-03-25T22:37:18.599Z,4.03
2019-03-25T22:40:07.612Z,4.40
2019-03-25T22:42:56.742Z,3.97
2019-03-25T22:45:45.827Z,4.43
2019-03-25T22:48:35.227Z,4.20
2019-03-25T22:51:23.940Z,3.63
2019-03-25T22:54:12.735Z,3.27
2019-03-25T22:57:01.664Z,3.70
2019-03-25T22:59:50.072Z,4.70
2019-03-25T23:02:39.727Z,4.00
2019-03-25T23:05:28.688Z,4.57
2019-03-25T23:08:17.600Z,4.30
2019-03-25T23:11:06.627Z,3.47
2019-03-25T23:13:55.152Z,3.87
2019-03-25T23:16:44.199Z,3.53
2019-03-25T23:19:33.736Z,3.53
2019-03-25T23:22:22.701Z,3.50
2019-03-25T23:25:11.563Z,3.47
2019-03-25T23:27:59.986Z,3.03
2019-03-25T23:30:48.128Z,3.90
2019-03-25T23:33:36.277Z,3.43
2019-03-25T23:36:24.763Z,4.03
2019-03-25T23:39:13.463Z,4.23
2019-03-25T23:42:02.446Z,4.40
2019-03-25T23:44:51.467Z,4.50
2019-03-25T23:47:40.272Z,3.87
2019-03-25T23:50:28.668Z,3.53
2019-03-25T23:53:17.494Z,3.13
2019-03-25T23:56:06.379Z,3.37
2019-03-25T23:58:54.544Z,3.50
